SBCZ/CZS METAR and TAF weather

Enter ICAO airport designator
Station Type Date Time Source
SBCZ METAR 2018/12/15 22:00 UTC NOAA

SBCZ 152200Z 07004KT 9999 FEW030 30/23 Q1010


Station Type Date Time Source
SBCZ Decoded METAR 2018/12/15 22:00 UTC NOAA

Cruzeiro Do Sul, Brazil (SBCZ) 07-38S 072-40W
Dec 15, 2018 - 05:00 PM EST / 2018.12.15 2200 UTC
Wind: from the ENE (070 degrees) at 5 MPH (4 KT):0
Visibility: greater than 7 mile(s):0
Sky conditions: mostly clear
Temperature: 86 F (30 C)
Heat index: 93.4 F (34.1 C):1
Dew Point: 73 F (23 C)
Relative Humidity: 66%
Pressure (altimeter): 29.83 in. Hg (1010 hPa)
ob: SBCZ 152200Z 07004KT 9999 FEW030 30/23 Q1010
cycle: 22

Station Type Date Time Source
SBCZ TAF 2018/12/15 18:39 UTC NOAA

TAF SBCZ 151600Z 1518/1618 36005KT 9999 BKN025 TX31/1519Z TN21/1608Z
BECMG 1519/1521 SCT030
BECMG 1523/1601 00000KT CAVOK
BECMG 1607/1609 9999 BKN008
BECMG 1611/1613 30005KT SCT015
BECMG 1615/1617 02007KT BKN030
RMK PD Y


Example: see airport list